createdAt,value
2023-02-03T00:02:59.960Z,4.50
2023-02-03T00:06:03.935Z,4.50
2023-02-03T00:09:05.224Z,4.50
2023-02-03T00:12:06.901Z,4.50
2023-02-03T00:15:08.906Z,4.50
2023-02-03T00:18:09.716Z,4.40
2023-02-03T00:21:10.429Z,4.40
2023-02-03T00:24:11.379Z,4.40
2023-02-03T00:27:12.473Z,4.40
2023-02-03T00:30:14.028Z,4.40
2023-02-03T00:33:15.329Z,4.30
2023-02-03T00:36:16.443Z,4.30
2023-02-03T00:39:17.241Z,4.30
2023-02-03T00:42:18.394Z,4.20
2023-02-03T00:45:20.218Z,4.10
2023-02-03T00:48:21.227Z,4.00
2023-02-03T00:51:22.092Z,3.80
2023-02-03T00:54:22.938Z,3.80
2023-02-03T00:57:24.336Z,3.80
2023-02-03T01:00:25.458Z,3.80
2023-02-03T01:03:26.550Z,3.70
2023-02-03T01:06:27.362Z,3.70
2023-02-03T01:09:28.617Z,3.70
2023-02-03T01:12:31.544Z,3.60
2023-02-03T01:15:33.857Z,3.70
2023-02-03T01:18:35.049Z,3.80
2023-02-03T01:21:38.793Z,3.80
2023-02-03T01:24:39.540Z,3.90
2023-02-03T01:27:40.337Z,3.90
2023-02-03T01:30:41.201Z,3.90
2023-02-03T01:33:46.330Z,3.90
2023-02-03T01:36:47.226Z,3.90
2023-02-03T01:39:48.562Z,3.90
2023-02-03T01:42:49.377Z,4.00
2023-02-03T01:45:50.614Z,4.00
2023-02-03T01:48:55.642Z,4.10
2023-02-03T01:51:58.051Z,4.10
2023-02-03T01:55:05.604Z,4.10
2023-02-03T01:58:25.000Z,4.10
2023-02-03T02:01:27.069Z,4.10
2023-02-03T02:04:40.137Z,4.10
2023-02-03T02:07:43.089Z,4.10
2023-02-03T02:10:45.491Z,4.00
2023-02-03T02:13:48.809Z,4.00
2023-02-03T02:17:06.057Z,4.00
2023-02-03T02:20:53.651Z,4.00
2023-02-03T02:24:32.786Z,4.00
2023-02-03T02:28:11.431Z,4.10
2023-02-03T02:31:53.889Z,4.10
2023-02-03T02:35:21.608Z,4.20
2023-02-03T02:38:45.904Z,4.20
2023-02-03T02:41:58.559Z,4.20
2023-02-03T02:45:16.954Z,4.30
2023-02-03T02:48:47.925Z,4.30
2023-02-03T02:51:51.958Z,4.30
2023-02-03T02:55:00.913Z,4.30
2023-02-03T02:58:09.780Z,4.40
2023-02-03T03:01:12.333Z,4.40
2023-02-03T03:04:18.713Z,4.40
2023-02-03T03:07:27.538Z,4.40
2023-02-03T03:10:33.079Z,4.40
2023-02-03T03:13:48.565Z,4.40
2023-02-03T03:17:00.091Z,4.30
2023-02-03T03:20:11.507Z,4.40
2023-02-03T03:23:30.358Z,4.30
2023-02-03T03:26:52.566Z,4.30
2023-02-03T03:30:13.239Z,4.30
2023-02-03T03:33:13.998Z,4.30
2023-02-03T03:36:56.224Z,4.30
2023-02-03T03:40:17.267Z,4.30
2023-02-03T03:43:28.572Z,4.40
2023-02-03T03:46:42.792Z,4.30
2023-02-03T03:49:48.462Z,4.30
2023-02-03T03:52:52.258Z,4.30
2023-02-03T03:55:55.264Z,4.30
2023-02-03T03:58:59.542Z,4.30
2023-02-03T04:02:05.088Z,4.20
2023-02-03T04:05:13.966Z,4.20
2023-02-03T04:08:15.103Z,4.20
2023-02-03T04:11:35.748Z,4.30
2023-02-03T04:14:40.975Z,4.30
2023-02-03T04:17:41.742Z,4.20
2023-02-03T04:20:43.335Z,4.20
2023-02-03T04:23:44.232Z,4.20
2023-02-03T04:26:45.198Z,4.10
2023-02-03T04:29:47.722Z,4.10
2023-02-03T04:32:48.905Z,4.00
2023-02-03T04:35:49.959Z,4.00
2023-02-03T04:38:51.545Z,4.20
2023-02-03T04:41:52.553Z,4.20
2023-02-03T04:44:53.323Z,4.10
2023-02-03T04:47:54.814Z,4.10
2023-02-03T04:50:55.723Z,4.00
2023-02-03T04:53:56.490Z,4.00
2023-02-03T04:56:57.761Z,3.90
2023-02-03T04:59:58.614Z,3.90
2023-02-03T05:02:59.750Z,3.90
2023-02-03T05:06:01.186Z,4.00
2023-02-03T05:09:02.068Z,4.10
2023-02-03T05:12:03.134Z,4.10
2023-02-03T05:15:04.297Z,4.10
2023-02-03T05:18:05.292Z,4.00
2023-02-03T05:21:07.058Z,4.10
2023-02-03T05:24:08.306Z,4.10
2023-02-03T05:27:09.523Z,4.10
2023-02-03T05:30:12.144Z,4.10
2023-02-03T05:33:13.093Z,4.10
2023-02-03T05:36:13.757Z,4.10
2023-02-03T05:39:14.848Z,4.00
2023-02-03T05:42:15.775Z,4.00
2023-02-03T05:45:17.492Z,4.10
2023-02-03T05:48:18.552Z,4.20
2023-02-03T05:51:19.488Z,4.20
2023-02-03T05:54:20.409Z,4.10
2023-02-03T05:57:21.402Z,4.10
2023-02-03T06:00:23.931Z,4.00
2023-02-03T06:03:25.140Z,4.00
2023-02-03T06:06:27.520Z,4.00
2023-02-03T06:09:28.414Z,4.00
2023-02-03T06:12:29.446Z,4.10
2023-02-03T06:15:30.759Z,4.10
2023-02-03T06:18:32.283Z,4.20
2023-02-03T06:21:33.414Z,4.20
2023-02-03T06:24:34.048Z,4.20
2023-02-03T06:27:35.997Z,4.20
2023-02-03T06:30:37.439Z,4.20
2023-02-03T06:33:38.289Z,4.20
2023-02-03T06:36:39.205Z,4.30
2023-02-03T06:39:39.915Z,4.20
2023-02-03T06:42:40.673Z,4.20
2023-02-03T06:45:42.156Z,4.20
2023-02-03T06:48:42.849Z,4.20
2023-02-03T06:51:45.686Z,4.20
2023-02-03T06:54:46.700Z,4.20
2023-02-03T06:57:49.322Z,4.20
2023-02-03T07:00:51.587Z,4.20
2023-02-03T07:03:53.017Z,4.20
2023-02-03T07:06:54.496Z,4.30
2023-02-03T07:09:55.455Z,4.20
2023-02-03T07:13:01.575Z,4.20
2023-02-03T07:16:02.685Z,4.20
2023-02-03T07:19:05.562Z,4.10
2023-02-03T07:22:06.613Z,4.20
2023-02-03T07:25:07.496Z,4.20
2023-02-03T07:28:08.229Z,4.30
2023-02-03T07:31:10.703Z,4.30
2023-02-03T07:34:12.065Z,4.30
2023-02-03T07:37:13.243Z,4.20
2023-02-03T07:40:15.940Z,4.20
2023-02-03T07:43:16.985Z,4.10
2023-02-03T07:46:20.778Z,4.20
2023-02-03T07:49:21.660Z,4.20
2023-02-03T07:52:22.635Z,4.30
2023-02-03T07:55:23.885Z,4.30
2023-02-03T07:58:24.651Z,4.30
2023-02-03T08:01:26.533Z,4.30
2023-02-03T08:04:27.764Z,4.30
2023-02-03T08:07:28.702Z,4.30
2023-02-03T08:10:30.369Z,4.40
2023-02-03T08:13:31.801Z,4.50
2023-02-03T08:16:33.070Z,4.70
2023-02-03T08:19:34.353Z,4.90
2023-02-03T08:22:35.477Z,4.80
2023-02-03T08:25:36.117Z,4.80
2023-02-03T08:28:37.150Z,4.80
2023-02-03T08:31:37.960Z,4.90
2023-02-03T08:34:39.357Z,5.00
2023-02-03T08:37:40.455Z,5.00
2023-02-03T08:40:41.144Z,5.00
2023-02-03T08:43:42.522Z,4.90
2023-02-03T08:46:44.317Z,4.90
2023-02-03T08:49:45.598Z,5.00
2023-02-03T08:52:46.646Z,5.20
2023-02-03T08:55:47.481Z,5.30
2023-02-03T08:58:48.232Z,5.30
2023-02-03T09:01:48.997Z,5.70
2023-02-03T09:04:50.500Z,7.00
2023-02-03T09:07:51.813Z,7.50
2023-02-03T09:10:52.746Z,7.80
2023-02-03T09:13:53.760Z,6.70
2023-02-03T09:16:54.457Z,6.50
2023-02-03T09:19:55.328Z,6.40
2023-02-03T09:22:59.747Z,6.60
2023-02-03T09:26:06.981Z,7.60
2023-02-03T09:29:08.140Z,7.70
2023-02-03T09:32:10.808Z,8.10
2023-02-03T09:35:12.006Z,8.80
2023-02-03T09:38:12.967Z,9.50
2023-02-03T09:42:02.557Z,9.90
2023-02-03T09:45:26.447Z,11.70
2023-02-03T09:48:43.553Z,11.80
2023-02-03T09:51:56.038Z,11.40
2023-02-03T09:55:26.855Z,10.90
2023-02-03T09:58:33.882Z,10.40
2023-02-03T10:01:47.133Z,11.10
2023-02-03T10:05:18.178Z,11.50
2023-02-03T10:08:36.559Z,11.10
2023-02-03T10:12:42.129Z,10.00
2023-02-03T10:16:31.924Z,8.40
2023-02-03T10:19:51.252Z,8.50
2023-02-03T10:23:04.831Z,12.60
2023-02-03T10:26:15.025Z,11.30
2023-02-03T10:29:32.432Z,8.40
2023-02-03T10:32:36.165Z,8.60
2023-02-03T10:36:08.237Z,11.30
2023-02-03T10:39:41.416Z,12.20
2023-02-03T10:43:05.960Z,9.60
2023-02-03T10:46:06.947Z,8.80
2023-02-03T10:49:14.168Z,7.90
2023-02-03T10:52:27.397Z,10.20
2023-02-03T10:55:32.292Z,14.30
2023-02-03T10:58:34.846Z,12.70
2023-02-03T11:01:49.391Z,12.20
2023-02-03T11:05:21.228Z,11.10
2023-02-03T11:08:35.359Z,8.90
2023-02-03T11:11:40.900Z,8.50
2023-02-03T11:14:45.627Z,8.70
2023-02-03T11:17:46.606Z,8.80
2023-02-03T11:20:47.390Z,8.30
2023-02-03T11:24:03.141Z,8.00
2023-02-03T11:27:18.582Z,8.10
2023-02-03T11:30:30.514Z,8.10
2023-02-03T11:33:31.944Z,8.00
2023-02-03T11:36:36.122Z,8.00
2023-02-03T11:39:37.070Z,7.80
2023-02-03T11:42:44.720Z,7.70
2023-02-03T11:45:52.052Z,7.90
2023-02-03T11:49:23.145Z,8.30
2023-02-03T11:52:50.093Z,8.30
2023-02-03T11:56:27.004Z,7.80
2023-02-03T11:59:47.996Z,7.90
2023-02-03T12:03:29.262Z,7.80
2023-02-03T12:07:30.349Z,7.80
2023-02-03T12:11:11.173Z,8.40
2023-02-03T12:14:39.125Z,8.60
2023-02-03T12:18:05.660Z,9.10
2023-02-03T12:21:25.846Z,9.00
2023-02-03T12:24:59.937Z,8.40
2023-02-03T12:28:34.298Z,8.00
2023-02-03T12:32:16.065Z,7.90
2023-02-03T12:35:45.396Z,7.80
2023-02-03T12:38:56.304Z,8.30
2023-02-03T12:42:06.409Z,7.70
2023-02-03T12:45:26.713Z,7.50
2023-02-03T12:49:13.510Z,7.40
2023-02-03T12:52:40.837Z,7.30
2023-02-03T12:55:50.719Z,7.30
2023-02-03T12:59:18.550Z,7.30
2023-02-03T13:02:30.236Z,7.30
2023-02-03T13:06:18.251Z,7.30
2023-02-03T13:09:58.391Z,7.20
2023-02-03T13:13:01.189Z,7.10
2023-02-03T13:16:08.671Z,7.20
2023-02-03T13:19:22.979Z,7.10
2023-02-03T13:22:25.421Z,7.10
2023-02-03T13:25:50.824Z,7.10
2023-02-03T13:29:32.560Z,7.20
2023-02-03T13:32:58.712Z,7.20
2023-02-03T13:36:30.740Z,7.30
2023-02-03T13:40:07.402Z,7.20
2023-02-03T13:43:39.272Z,7.10
2023-02-03T13:46:42.079Z,7.10
2023-02-03T13:49:53.829Z,7.10
2023-02-03T13:53:16.644Z,7.10
2023-02-03T13:56:25.873Z,7.10
2023-02-03T13:59:42.699Z,7.00
2023-02-03T14:02:55.595Z,7.10
2023-02-03T14:06:01.818Z,7.20
2023-02-03T14:09:22.651Z,7.20
2023-02-03T14:12:30.006Z,7.40
2023-02-03T14:15:33.626Z,7.40
2023-02-03T14:18:46.265Z,7.20
2023-02-03T14:22:02.825Z,7.30
2023-02-03T14:25:07.976Z,7.10
2023-02-03T14:28:18.353Z,7.10
2023-02-03T14:31:28.512Z,7.10
2023-02-03T14:34:37.718Z,7.00
2023-02-03T14:37:39.331Z,7.00
2023-02-03T14:41:02.814Z,6.90
2023-02-03T14:44:45.001Z,6.90
2023-02-03T14:48:29.193Z,6.80
2023-02-03T14:52:04.650Z,6.70
2023-02-03T14:55:57.878Z,6.60
2023-02-03T14:59:04.989Z,6.60
2023-02-03T15:02:05.862Z,6.50
2023-02-03T15:05:12.575Z,6.40
2023-02-03T15:08:42.425Z,6.40
2023-02-03T15:11:46.934Z,6.40
2023-02-03T15:14:47.917Z,6.40
2023-02-03T15:17:52.034Z,6.40
2023-02-03T15:20:56.232Z,6.40
2023-02-03T15:23:57.350Z,6.40
2023-02-03T15:26:58.055Z,6.40
2023-02-03T15:29:59.440Z,6.40
2023-02-03T15:33:15.223Z,6.40
2023-02-03T15:36:31.770Z,6.40
2023-02-03T15:40:02.871Z,6.30
2023-02-03T15:43:21.271Z,6.30
2023-02-03T15:46:38.874Z,6.20
2023-02-03T15:49:43.532Z,6.30
2023-02-03T15:52:48.025Z,6.20
2023-02-03T15:55:55.299Z,6.10
2023-02-03T15:58:58.983Z,6.20
2023-02-03T16:02:07.653Z,6.10
2023-02-03T16:05:26.658Z,6.10
2023-02-03T16:08:46.307Z,6.10
2023-02-03T16:11:47.628Z,6.10
2023-02-03T16:14:49.136Z,6.00
2023-02-03T16:17:57.623Z,5.90
2023-02-03T16:20:58.357Z,6.00
2023-02-03T16:24:00.629Z,6.10
2023-02-03T16:27:26.747Z,6.10
2023-02-03T16:30:47.732Z,6.10
2023-02-03T16:34:09.553Z,6.00
2023-02-03T16:37:45.070Z,6.00
2023-02-03T16:41:06.512Z,6.10
2023-02-03T16:44:30.337Z,6.00
2023-02-03T16:47:51.555Z,6.10
2023-02-03T16:50:58.240Z,6.10
2023-02-03T16:54:00.216Z,6.10
2023-02-03T16:57:00.981Z,6.10
2023-02-03T17:00:02.350Z,6.10
2023-02-03T17:03:06.340Z,6.10
2023-02-03T17:06:12.996Z,6.10
2023-02-03T17:09:13.966Z,6.10
2023-02-03T17:12:15.759Z,6.10
2023-02-03T17:15:16.728Z,6.10
2023-02-03T17:18:19.482Z,6.10
2023-02-03T17:21:25.524Z,6.10
2023-02-03T17:24:26.873Z,6.20
2023-02-03T17:27:28.267Z,6.10
2023-02-03T17:30:33.995Z,6.10
2023-02-03T17:33:36.536Z,6.10
2023-02-03T17:36:37.234Z,6.10
2023-02-03T17:55:57.056Z,6.00
2023-02-03T17:59:03.985Z,6.00
2023-02-03T18:02:04.981Z,6.10
2023-02-03T18:05:06.572Z,6.10
2023-02-03T18:08:16.138Z,6.10
2023-02-03T18:11:20.421Z,6.10
2023-02-03T18:14:21.242Z,6.10
2023-02-03T18:17:21.980Z,6.10
2023-02-03T18:20:23.126Z,6.10
2023-02-03T18:23:24.416Z,6.10
2023-02-03T18:26:28.819Z,6.10
2023-02-03T18:29:30.038Z,6.10
2023-02-03T18:32:31.395Z,6.10
2023-02-03T18:35:33.818Z,6.10
2023-02-03T18:38:36.369Z,6.10
2023-02-03T18:41:38.644Z,6.10
2023-02-03T18:44:41.432Z,6.10
2023-02-03T18:47:42.125Z,6.10
2023-02-03T18:50:44.710Z,6.00
2023-02-03T18:53:46.925Z,6.10
2023-02-03T18:56:47.550Z,6.10
2023-02-03T18:59:49.597Z,6.10
2023-02-03T19:02:50.870Z,6.10
2023-02-03T19:05:52.337Z,6.10
2023-02-03T19:08:53.470Z,6.00
2023-02-03T19:11:54.382Z,6.00
2023-02-03T19:14:55.100Z,6.00
2023-02-03T19:17:55.761Z,6.00
2023-02-03T19:20:56.935Z,6.00
2023-02-03T19:23:57.977Z,6.10
2023-02-03T19:26:58.809Z,6.10
2023-02-03T19:29:59.552Z,6.10
2023-02-03T19:33:00.390Z,6.10
2023-02-03T19:36:01.600Z,6.10
2023-02-03T19:39:02.317Z,6.10
2023-02-03T19:42:03.715Z,6.10
2023-02-03T19:45:05.576Z,6.10
2023-02-03T19:48:06.605Z,6.10
2023-02-03T19:51:07.378Z,6.00
2023-02-03T19:54:12.323Z,6.00
2023-02-03T19:57:13.142Z,6.00
2023-02-03T20:00:15.262Z,6.00
2023-02-03T20:03:18.366Z,6.00
2023-02-03T20:06:19.350Z,6.00
2023-02-03T20:09:20.686Z,6.00
2023-02-03T20:12:21.426Z,6.00
2023-02-03T20:15:22.347Z,6.00
2023-02-03T20:18:23.270Z,6.00
2023-02-03T20:21:24.431Z,6.00
2023-02-03T20:24:25.175Z,6.00
2023-02-03T20:27:26.086Z,6.00
2023-02-03T20:30:27.294Z,6.00
2023-02-03T20:33:30.325Z,6.00
2023-02-03T20:36:31.352Z,6.00
2023-02-03T20:39:32.259Z,6.00
2023-02-03T20:42:34.134Z,5.90
2023-02-03T20:45:34.940Z,5.80
2023-02-03T20:48:35.661Z,5.90
2023-02-03T20:51:36.437Z,5.90
2023-02-03T20:54:37.449Z,5.80
2023-02-03T20:57:38.162Z,5.90
2023-02-03T21:00:39.553Z,5.90
2023-02-03T21:03:59.668Z,5.90
2023-02-03T21:07:01.671Z,5.90
2023-02-03T21:10:21.587Z,5.90
2023-02-03T21:13:33.708Z,5.90
2023-02-03T21:16:39.400Z,5.80
2023-02-03T21:19:41.601Z,5.80
2023-02-03T21:22:42.449Z,5.80
2023-02-03T21:25:43.096Z,5.80
2023-02-03T21:28:43.987Z,5.80
2023-02-03T21:31:45.608Z,5.80
2023-02-03T21:34:48.062Z,5.80
2023-02-03T21:37:49.285Z,5.80
2023-02-03T21:40:50.150Z,5.80
2023-02-03T21:43:59.254Z,5.80
2023-02-03T21:47:06.132Z,5.80
2023-02-03T21:50:34.636Z,5.80
2023-02-03T21:53:37.806Z,5.80
2023-02-03T21:56:42.186Z,5.80
2023-02-03T21:59:46.947Z,5.80
2023-02-03T22:02:59.943Z,5.80
2023-02-03T22:06:50.941Z,5.80
2023-02-03T22:09:51.958Z,5.80
2023-02-03T22:12:53.114Z,5.80
2023-02-03T22:15:54.089Z,5.80
2023-02-03T22:18:54.993Z,5.80
2023-02-03T22:21:57.509Z,5.80
2023-02-03T22:24:58.589Z,5.80
2023-02-03T22:27:59.860Z,5.80
2023-02-03T22:31:01.187Z,5.80
2023-02-03T22:34:02.330Z,5.80
2023-02-03T22:37:03.462Z,5.80
2023-02-03T22:40:05.540Z,5.80
2023-02-03T22:43:06.273Z,5.80
2023-02-03T22:46:08.145Z,5.70
2023-02-03T22:49:08.905Z,5.70
2023-02-03T22:52:10.154Z,5.70
2023-02-03T22:55:11.616Z,5.70
2023-02-03T22:58:12.480Z,5.70
2023-02-03T23:01:13.766Z,5.70
2023-02-03T23:04:15.052Z,5.70
2023-02-03T23:07:16.292Z,5.70
2023-02-03T23:10:24.146Z,5.60
2023-02-03T23:13:25.211Z,5.60
2023-02-03T23:16:26.023Z,5.50
2023-02-03T23:19:26.819Z,5.50
2023-02-03T23:22:28.225Z,5.40
2023-02-03T23:25:29.242Z,5.40
2023-02-03T23:28:30.050Z,5.30
2023-02-03T23:31:30.843Z,5.20
2023-02-03T23:34:52.169Z,5.20
2023-02-03T23:37:52.994Z,5.20
2023-02-03T23:40:56.733Z,5.10
2023-02-03T23:43:57.590Z,5.10
2023-02-03T23:46:58.886Z,5.00
2023-02-03T23:50:00.159Z,4.90
2023-02-03T23:53:00.940Z,4.80
2023-02-03T23:56:01.753Z,4.70
2023-02-03T23:59:03.472Z,4.70
